sensor_id;sensor_type;location;lat;lon;timestamp;P1;durP1;ratioP1;P2;durP2;ratioP2
21507;SDS011;10915;54.352;9.074;2022-07-12T00:02:06;4.70;;;3.23;;
21507;SDS011;10915;54.352;9.074;2022-07-12T00:04:32;3.97;;;3.23;;
21507;SDS011;10915;54.352;9.074;2022-07-12T00:06:58;3.93;;;3.13;;
21507;SDS011;10915;54.352;9.074;2022-07-12T00:09:23;4.23;;;3.20;;
21507;SDS011;10915;54.352;9.074;2022-07-12T00:11:49;4.03;;;3.20;;
21507;SDS011;10915;54.352;9.074;2022-07-12T00:14:15;4.47;;;3.07;;
21507;SDS011;10915;54.352;9.074;2022-07-12T00:16:41;4.63;;;3.23;;
21507;SDS011;10915;54.352;9.074;2022-07-12T00:19:06;4.03;;;2.93;;
21507;SDS011;10915;54.352;9.074;2022-07-12T00:21:33;5.30;;;3.60;;
21507;SDS011;10915;54.352;9.074;2022-07-12T00:24:00;7.07;;;2.80;;
21507;SDS011;10915;54.352;9.074;2022-07-12T00:26:26;3.27;;;2.63;;
21507;SDS011;10915;54.352;9.074;2022-07-12T00:28:51;5.70;;;3.20;;
21507;SDS011;10915;54.352;9.074;2022-07-12T00:31:17;5.53;;;3.70;;
21507;SDS011;10915;54.352;9.074;2022-07-12T00:33:43;5.83;;;2.90;;
21507;SDS011;10915;54.352;9.074;2022-07-12T00:36:08;3.83;;;2.00;;
21507;SDS011;10915;54.352;9.074;2022-07-12T00:38:34;4.20;;;2.63;;
21507;SDS011;10915;54.352;9.074;2022-07-12T00:41:00;6.77;;;2.83;;
21507;SDS011;10915;54.352;9.074;2022-07-12T00:43:25;3.63;;;2.70;;
21507;SDS011;10915;54.352;9.074;2022-07-12T00:45:51;5.00;;;2.73;;
21507;SDS011;10915;54.352;9.074;2022-07-12T00:48:17;3.50;;;2.40;;
21507;SDS011;10915;54.352;9.074;2022-07-12T00:50:44;3.93;;;2.57;;
21507;SDS011;10915;54.352;9.074;2022-07-12T00:53:10;3.97;;;2.70;;
21507;SDS011;10915;54.352;9.074;2022-07-12T00:55:38;5.07;;;3.17;;
21507;SDS011;10915;54.352;9.074;2022-07-12T00:58:04;5.63;;;3.70;;
21507;SDS011;10915;54.352;9.074;2022-07-12T01:00:29;6.67;;;3.60;;
21507;SDS011;10915;54.352;9.074;2022-07-12T01:02:56;5.27;;;3.00;;
21507;SDS011;10915;54.352;9.074;2022-07-12T01:05:23;4.40;;;2.80;;
21507;SDS011;10915;54.352;9.074;2022-07-12T01:07:49;6.03;;;3.20;;
21507;SDS011;10915;54.352;9.074;2022-07-12T01:10:15;4.20;;;2.90;;
21507;SDS011;10915;54.352;9.074;2022-07-12T01:12:41;5.43;;;2.90;;
21507;SDS011;10915;54.352;9.074;2022-07-12T01:15:07;7.40;;;3.07;;
21507;SDS011;10915;54.352;9.074;2022-07-12T01:17:36;5.47;;;3.13;;
21507;SDS011;10915;54.352;9.074;2022-07-12T01:20:04;4.00;;;2.77;;
21507;SDS011;10915;54.352;9.074;2022-07-12T01:22:34;4.93;;;2.90;;
21507;SDS011;10915;54.352;9.074;2022-07-12T01:25:02;4.87;;;3.20;;
21507;SDS011;10915;54.352;9.074;2022-07-12T01:27:29;3.63;;;2.80;;
21507;SDS011;10915;54.352;9.074;2022-07-12T01:29:55;5.03;;;3.27;;
21507;SDS011;10915;54.352;9.074;2022-07-12T01:32:21;5.77;;;3.70;;
21507;SDS011;10915;54.352;9.074;2022-07-12T01:34:50;4.83;;;3.27;;
21507;SDS011;10915;54.352;9.074;2022-07-12T01:37:35;6.30;;;3.50;;
21507;SDS011;10915;54.352;9.074;2022-07-12T01:40:10;5.50;;;3.27;;
21507;SDS011;10915;54.352;9.074;2022-07-12T01:42:37;4.87;;;3.07;;
21507;SDS011;10915;54.352;9.074;2022-07-12T01:45:04;6.83;;;3.70;;
21507;SDS011;10915;54.352;9.074;2022-07-12T01:47:31;6.40;;;3.47;;
21507;SDS011;10915;54.352;9.074;2022-07-12T01:49:58;4.73;;;3.47;;
21507;SDS011;10915;54.352;9.074;2022-07-12T01:52:24;6.53;;;3.77;;
21507;SDS011;10915;54.352;9.074;2022-07-12T01:54:50;4.53;;;2.80;;
21507;SDS011;10915;54.352;9.074;2022-07-12T01:57:17;4.60;;;3.10;;
21507;SDS011;10915;54.352;9.074;2022-07-12T01:59:44;4.23;;;2.97;;
21507;SDS011;10915;54.352;9.074;2022-07-12T02:02:10;4.57;;;3.07;;
21507;SDS011;10915;54.352;9.074;2022-07-12T02:04:36;4.40;;;3.03;;
21507;SDS011;10915;54.352;9.074;2022-07-12T02:07:03;4.97;;;2.80;;
21507;SDS011;10915;54.352;9.074;2022-07-12T02:09:29;4.07;;;2.70;;
21507;SDS011;10915;54.352;9.074;2022-07-12T02:11:55;6.23;;;2.90;;
21507;SDS011;10915;54.352;9.074;2022-07-12T02:14:21;5.20;;;3.00;;
21507;SDS011;10915;54.352;9.074;2022-07-12T02:16:47;5.00;;;2.73;;
21507;SDS011;10915;54.352;9.074;2022-07-12T02:19:13;6.07;;;2.90;;
21507;SDS011;10915;54.352;9.074;2022-07-12T02:21:39;4.30;;;2.40;;
21507;SDS011;10915;54.352;9.074;2022-07-12T02:24:05;5.13;;;3.00;;
21507;SDS011;10915;54.352;9.074;2022-07-12T02:26:35;5.07;;;2.77;;
21507;SDS011;10915;54.352;9.074;2022-07-12T02:29:02;4.77;;;2.87;;
21507;SDS011;10915;54.352;9.074;2022-07-12T02:31:28;3.53;;;2.27;;
21507;SDS011;10915;54.352;9.074;2022-07-12T02:33:54;3.37;;;2.40;;
21507;SDS011;10915;54.352;9.074;2022-07-12T02:36:20;4.60;;;2.87;;
21507;SDS011;10915;54.352;9.074;2022-07-12T02:38:45;3.70;;;2.30;;
21507;SDS011;10915;54.352;9.074;2022-07-12T02:41:11;5.47;;;2.73;;
21507;SDS011;10915;54.352;9.074;2022-07-12T02:43:36;4.37;;;2.53;;
21507;SDS011;10915;54.352;9.074;2022-07-12T02:46:11;4.27;;;2.80;;
21507;SDS011;10915;54.352;9.074;2022-07-12T02:48:39;3.83;;;2.33;;
21507;SDS011;10915;54.352;9.074;2022-07-12T02:51:06;3.77;;;2.40;;
21507;SDS011;10915;54.352;9.074;2022-07-12T02:53:32;4.23;;;2.03;;
21507;SDS011;10915;54.352;9.074;2022-07-12T02:55:59;2.63;;;2.00;;
21507;SDS011;10915;54.352;9.074;2022-07-12T02:58:25;4.57;;;2.60;;
21507;SDS011;10915;54.352;9.074;2022-07-12T03:00:51;3.07;;;2.13;;
21507;SDS011;10915;54.352;9.074;2022-07-12T03:03:16;2.10;;;1.90;;
21507;SDS011;10915;54.352;9.074;2022-07-12T03:05:42;3.83;;;2.10;;
21507;SDS011;10915;54.352;9.074;2022-07-12T03:08:08;2.57;;;1.80;;
21507;SDS011;10915;54.352;9.074;2022-07-12T03:10:35;4.83;;;1.97;;
21507;SDS011;10915;54.352;9.074;2022-07-12T03:13:01;1.50;;;1.40;;
21507;SDS011;10915;54.352;9.074;2022-07-12T03:15:28;2.23;;;1.40;;
21507;SDS011;10915;54.352;9.074;2022-07-12T03:17:54;2.80;;;1.20;;
21507;SDS011;10915;54.352;9.074;2022-07-12T03:20:20;1.93;;;1.10;;
21507;SDS011;10915;54.352;9.074;2022-07-12T03:22:46;1.27;;;1.10;;
21507;SDS011;10915;54.352;9.074;2022-07-12T03:25:14;0.93;;;0.90;;
21507;SDS011;10915;54.352;9.074;2022-07-12T03:27:40;1.50;;;1.27;;
21507;SDS011;10915;54.352;9.074;2022-07-12T03:30:06;1.93;;;1.10;;
21507;SDS011;10915;54.352;9.074;2022-07-12T03:32:33;1.20;;;0.90;;
21507;SDS011;10915;54.352;9.074;2022-07-12T03:34:59;1.63;;;0.87;;
21507;SDS011;10915;54.352;9.074;2022-07-12T03:37:24;1.30;;;1.17;;
21507;SDS011;10915;54.352;9.074;2022-07-12T03:39:50;1.33;;;0.93;;
21507;SDS011;10915;54.352;9.074;2022-07-12T03:42:15;1.47;;;1.27;;
21507;SDS011;10915;54.352;9.074;2022-07-12T03:44:41;1.33;;;0.97;;
21507;SDS011;10915;54.352;9.074;2022-07-12T03:47:07;1.50;;;1.13;;
21507;SDS011;10915;54.352;9.074;2022-07-12T03:49:32;1.63;;;1.13;;
21507;SDS011;10915;54.352;9.074;2022-07-12T03:51:58;1.10;;;1.00;;
21507;SDS011;10915;54.352;9.074;2022-07-12T03:54:24;1.03;;;0.90;;
21507;SDS011;10915;54.352;9.074;2022-07-12T03:56:49;2.20;;;0.90;;
21507;SDS011;10915;54.352;9.074;2022-07-12T03:59:33;1.10;;;0.80;;
21507;SDS011;10915;54.352;9.074;2022-07-12T04:01:59;1.00;;;0.90;;
21507;SDS011;10915;54.352;9.074;2022-07-12T04:04:27;1.17;;;0.87;;
21507;SDS011;10915;54.352;9.074;2022-07-12T04:06:52;1.40;;;0.93;;
21507;SDS011;10915;54.352;9.074;2022-07-12T04:09:18;1.73;;;1.20;;
21507;SDS011;10915;54.352;9.074;2022-07-12T04:11:44;1.50;;;1.10;;
21507;SDS011;10915;54.352;9.074;2022-07-12T04:14:09;2.20;;;1.30;;
21507;SDS011;10915;54.352;9.074;2022-07-12T04:16:35;1.93;;;1.13;;
21507;SDS011;10915;54.352;9.074;2022-07-12T04:19:01;1.30;;;1.20;;
21507;SDS011;10915;54.352;9.074;2022-07-12T04:21:27;1.50;;;1.07;;
21507;SDS011;10915;54.352;9.074;2022-07-12T04:23:52;2.93;;;1.00;;
21507;SDS011;10915;54.352;9.074;2022-07-12T04:26:18;4.20;;;0.77;;
21507;SDS011;10915;54.352;9.074;2022-07-12T04:28:44;2.83;;;1.50;;
21507;SDS011;10915;54.352;9.074;2022-07-12T04:31:09;2.13;;;1.73;;
21507;SDS011;10915;54.352;9.074;2022-07-12T04:33:35;1.50;;;1.30;;
21507;SDS011;10915;54.352;9.074;2022-07-12T04:36:00;2.47;;;1.47;;
21507;SDS011;10915;54.352;9.074;2022-07-12T04:38:26;2.40;;;1.80;;
21507;SDS011;10915;54.352;9.074;2022-07-12T04:40:52;2.43;;;1.53;;
21507;SDS011;10915;54.352;9.074;2022-07-12T04:43:17;2.10;;;1.77;;
21507;SDS011;10915;54.352;9.074;2022-07-12T04:45:43;6.23;;;2.10;;
21507;SDS011;10915;54.352;9.074;2022-07-12T04:48:10;2.00;;;1.50;;
21507;SDS011;10915;54.352;9.074;2022-07-12T04:50:36;2.80;;;1.60;;
21507;SDS011;10915;54.352;9.074;2022-07-12T04:53:02;2.73;;;2.03;;
21507;SDS011;10915;54.352;9.074;2022-07-12T04:55:27;3.50;;;1.80;;
21507;SDS011;10915;54.352;9.074;2022-07-12T04:57:53;2.10;;;1.53;;
21507;SDS011;10915;54.352;9.074;2022-07-12T05:00:19;2.20;;;1.67;;
21507;SDS011;10915;54.352;9.074;2022-07-12T05:02:45;1.80;;;1.30;;
21507;SDS011;10915;54.352;9.074;2022-07-12T05:05:11;3.00;;;1.37;;
21507;SDS011;10915;54.352;9.074;2022-07-12T05:07:37;2.30;;;1.27;;
21507;SDS011;10915;54.352;9.074;2022-07-12T05:10:03;1.83;;;1.40;;
21507;SDS011;10915;54.352;9.074;2022-07-12T05:12:29;2.80;;;1.63;;
21507;SDS011;10915;54.352;9.074;2022-07-12T05:14:55;1.67;;;1.23;;
21507;SDS011;10915;54.352;9.074;2022-07-12T05:17:21;3.43;;;1.30;;
21507;SDS011;10915;54.352;9.074;2022-07-12T05:19:46;1.17;;;0.83;;
21507;SDS011;10915;54.352;9.074;2022-07-12T05:22:12;0.77;;;0.60;;
21507;SDS011;10915;54.352;9.074;2022-07-12T05:24:37;1.10;;;0.70;;
21507;SDS011;10915;54.352;9.074;2022-07-12T05:27:03;0.73;;;0.67;;
21507;SDS011;10915;54.352;9.074;2022-07-12T05:29:29;0.73;;;0.70;;
21507;SDS011;10915;54.352;9.074;2022-07-12T05:31:55;1.17;;;0.90;;
21507;SDS011;10915;54.352;9.074;2022-07-12T05:34:21;1.00;;;0.83;;
21507;SDS011;10915;54.352;9.074;2022-07-12T05:36:47;1.90;;;1.40;;
21507;SDS011;10915;54.352;9.074;2022-07-12T05:39:12;2.57;;;1.60;;
21507;SDS011;10915;54.352;9.074;2022-07-12T05:41:38;2.33;;;1.93;;
21507;SDS011;10915;54.352;9.074;2022-07-12T05:44:04;3.50;;;2.07;;
21507;SDS011;10915;54.352;9.074;2022-07-12T05:46:30;3.87;;;1.90;;
21507;SDS011;10915;54.352;9.074;2022-07-12T05:48:56;2.43;;;1.77;;
21507;SDS011;10915;54.352;9.074;2022-07-12T05:51:21;2.60;;;1.70;;
21507;SDS011;10915;54.352;9.074;2022-07-12T05:54:06;2.50;;;1.47;;
21507;SDS011;10915;54.352;9.074;2022-07-12T05:56:31;2.77;;;1.77;;
21507;SDS011;10915;54.352;9.074;2022-07-12T05:58:57;2.47;;;1.93;;
21507;SDS011;10915;54.352;9.074;2022-07-12T06:01:23;1.90;;;1.33;;
21507;SDS011;10915;54.352;9.074;2022-07-12T06:03:49;1.97;;;1.30;;
21507;SDS011;10915;54.352;9.074;2022-07-12T06:06:15;1.80;;;1.50;;
21507;SDS011;10915;54.352;9.074;2022-07-12T06:08:40;1.67;;;1.17;;
21507;SDS011;10915;54.352;9.074;2022-07-12T06:11:06;1.20;;;1.10;;
21507;SDS011;10915;54.352;9.074;2022-07-12T06:13:32;1.23;;;0.90;;
21507;SDS011;10915;54.352;9.074;2022-07-12T06:15:58;0.60;;;0.57;;
21507;SDS011;10915;54.352;9.074;2022-07-12T06:18:24;1.33;;;0.77;;
21507;SDS011;10915;54.352;9.074;2022-07-12T06:20:50;0.43;;;0.30;;
21507;SDS011;10915;54.352;9.074;2022-07-12T06:23:16;0.43;;;0.40;;
21507;SDS011;10915;54.352;9.074;2022-07-12T06:25:42;0.70;;;0.70;;
21507;SDS011;10915;54.352;9.074;2022-07-12T06:28:08;0.83;;;0.50;;
21507;SDS011;10915;54.352;9.074;2022-07-12T06:30:34;0.53;;;0.50;;
21507;SDS011;10915;54.352;9.074;2022-07-12T06:32:59;0.40;;;0.40;;
21507;SDS011;10915;54.352;9.074;2022-07-12T06:35:25;0.30;;;0.30;;
21507;SDS011;10915;54.352;9.074;2022-07-12T06:37:50;0.30;;;0.30;;
21507;SDS011;10915;54.352;9.074;2022-07-12T06:40:16;0.90;;;0.60;;
21507;SDS011;10915;54.352;9.074;2022-07-12T06:42:42;0.80;;;0.80;;
21507;SDS011;10915;54.352;9.074;2022-07-12T06:45:08;0.60;;;0.60;;
21507;SDS011;10915;54.352;9.074;2022-07-12T06:47:35;1.33;;;0.50;;
21507;SDS011;10915;54.352;9.074;2022-07-12T06:50:01;0.70;;;0.40;;
21507;SDS011;10915;54.352;9.074;2022-07-12T06:52:27;0.90;;;0.60;;
21507;SDS011;10915;54.352;9.074;2022-07-12T06:54:53;0.70;;;0.57;;
21507;SDS011;10915;54.352;9.074;2022-07-12T06:57:18;1.20;;;0.70;;
21507;SDS011;10915;54.352;9.074;2022-07-12T06:59:44;0.67;;;0.60;;
21507;SDS011;10915;54.352;9.074;2022-07-12T07:02:10;0.50;;;0.50;;
21507;SDS011;10915;54.352;9.074;2022-07-12T07:04:35;1.33;;;0.97;;
21507;SDS011;10915;54.352;9.074;2022-07-12T07:07:01;2.00;;;1.40;;
21507;SDS011;10915;54.352;9.074;2022-07-12T07:09:26;1.80;;;1.23;;
21507;SDS011;10915;54.352;9.074;2022-07-12T07:11:52;2.03;;;1.43;;
21507;SDS011;10915;54.352;9.074;2022-07-12T07:14:18;2.37;;;1.87;;
21507;SDS011;10915;54.352;9.074;2022-07-12T07:16:44;2.60;;;2.00;;
21507;SDS011;10915;54.352;9.074;2022-07-12T07:19:09;2.30;;;1.80;;
21507;SDS011;10915;54.352;9.074;2022-07-12T07:21:35;2.17;;;1.70;;
21507;SDS011;10915;54.352;9.074;2022-07-12T07:24:01;2.60;;;1.90;;
21507;SDS011;10915;54.352;9.074;2022-07-12T07:26:27;3.07;;;1.93;;
21507;SDS011;10915;54.352;9.074;2022-07-12T07:28:53;2.50;;;1.77;;
21507;SDS011;10915;54.352;9.074;2022-07-12T07:31:37;1.97;;;1.60;;
21507;SDS011;10915;54.352;9.074;2022-07-12T07:34:03;2.77;;;1.83;;
21507;SDS011;10915;54.352;9.074;2022-07-12T07:36:29;1.00;;;0.80;;
21507;SDS011;10915;54.352;9.074;2022-07-12T07:38:56;1.90;;;1.20;;
21507;SDS011;10915;54.352;9.074;2022-07-12T07:41:22;2.50;;;2.07;;
21507;SDS011;10915;54.352;9.074;2022-07-12T07:43:48;5.03;;;2.20;;
21507;SDS011;10915;54.352;9.074;2022-07-12T07:46:14;2.30;;;1.83;;
21507;SDS011;10915;54.352;9.074;2022-07-12T07:48:39;3.67;;;2.60;;
21507;SDS011;10915;54.352;9.074;2022-07-12T07:51:05;3.57;;;2.40;;
21507;SDS011;10915;54.352;9.074;2022-07-12T07:53:31;2.63;;;2.10;;
21507;SDS011;10915;54.352;9.074;2022-07-12T07:55:56;3.30;;;2.20;;
21507;SDS011;10915;54.352;9.074;2022-07-12T07:58:22;2.30;;;1.90;;
21507;SDS011;10915;54.352;9.074;2022-07-12T08:00:51;1.80;;;1.43;;
21507;SDS011;10915;54.352;9.074;2022-07-12T08:03:18;1.53;;;1.27;;
21507;SDS011;10915;54.352;9.074;2022-07-12T08:05:44;2.30;;;1.67;;
21507;SDS011;10915;54.352;9.074;2022-07-12T08:08:11;2.50;;;1.50;;
21507;SDS011;10915;54.352;9.074;2022-07-12T08:10:36;1.57;;;1.10;;
21507;SDS011;10915;54.352;9.074;2022-07-12T08:13:02;2.23;;;1.47;;
21507;SDS011;10915;54.352;9.074;2022-07-12T08:15:28;1.77;;;1.50;;
21507;SDS011;10915;54.352;9.074;2022-07-12T08:17:54;1.20;;;1.00;;
21507;SDS011;10915;54.352;9.074;2022-07-12T08:20:19;1.00;;;0.90;;
21507;SDS011;10915;54.352;9.074;2022-07-12T08:22:46;1.13;;;0.90;;
21507;SDS011;10915;54.352;9.074;2022-07-12T08:25:12;1.20;;;1.10;;
21507;SDS011;10915;54.352;9.074;2022-07-12T08:27:38;2.03;;;1.30;;
21507;SDS011;10915;54.352;9.074;2022-07-12T08:30:04;1.20;;;1.10;;
21507;SDS011;10915;54.352;9.074;2022-07-12T08:32:29;1.63;;;1.10;;
21507;SDS011;10915;54.352;9.074;2022-07-12T08:34:55;1.57;;;1.40;;
21507;SDS011;10915;54.352;9.074;2022-07-12T08:37:22;109.40;;;62.80;;
21507;SDS011;10915;54.352;9.074;2022-07-12T08:39:48;64.67;;;46.03;;
21507;SDS011;10915;54.352;9.074;2022-07-12T08:42:14;25.47;;;21.37;;
21507;SDS011;10915;54.352;9.074;2022-07-12T08:44:41;14.13;;;12.63;;
21507;SDS011;10915;54.352;9.074;2022-07-12T08:47:08;8.20;;;6.83;;
21507;SDS011;10915;54.352;9.074;2022-07-12T08:49:34;6.63;;;5.03;;
21507;SDS011;10915;54.352;9.074;2022-07-12T08:52:02;4.07;;;3.20;;
21507;SDS011;10915;54.352;9.074;2022-07-12T08:54:50;5.90;;;4.47;;
21507;SDS011;10915;54.352;9.074;2022-07-12T08:57:27;3.97;;;3.23;;
21507;SDS011;10915;54.352;9.074;2022-07-12T09:00:00;2.57;;;2.17;;
21507;SDS011;10915;54.352;9.074;2022-07-12T09:02:26;3.33;;;2.07;;
21507;SDS011;10915;54.352;9.074;2022-07-12T09:05:08;2.03;;;1.60;;
21507;SDS011;10915;54.352;9.074;2022-07-12T09:07:34;1.83;;;1.70;;
21507;SDS011;10915;54.352;9.074;2022-07-12T09:10:04;1.83;;;1.70;;
21507;SDS011;10915;54.352;9.074;2022-07-12T09:12:32;2.40;;;2.00;;
21507;SDS011;10915;54.352;9.074;2022-07-12T09:15:12;2.27;;;1.90;;
21507;SDS011;10915;54.352;9.074;2022-07-12T09:17:46;2.73;;;2.20;;
21507;SDS011;10915;54.352;9.074;2022-07-12T09:20:34;2.30;;;2.07;;
21507;SDS011;10915;54.352;9.074;2022-07-12T09:23:04;2.17;;;1.70;;
21507;SDS011;10915;54.352;9.074;2022-07-12T09:25:32;1.37;;;1.27;;
21507;SDS011;10915;54.352;9.074;2022-07-12T09:27:58;1.77;;;1.40;;
21507;SDS011;10915;54.352;9.074;2022-07-12T09:30:28;9.97;;;6.70;;
21507;SDS011;10915;54.352;9.074;2022-07-12T09:32:58;7.73;;;4.70;;
21507;SDS011;10915;54.352;9.074;2022-07-12T09:40:58;2.40;;;2.20;;
21507;SDS011;10915;54.352;9.074;2022-07-12T09:43:25;4.23;;;2.40;;
21507;SDS011;10915;54.352;9.074;2022-07-12T09:45:52;3.63;;;3.13;;
21507;SDS011;10915;54.352;9.074;2022-07-12T09:48:21;2.63;;;2.43;;
21507;SDS011;10915;54.352;9.074;2022-07-12T09:50:47;4.40;;;2.57;;
21507;SDS011;10915;54.352;9.074;2022-07-12T09:53:18;3.20;;;2.73;;
21507;SDS011;10915;54.352;9.074;2022-07-12T09:55:47;3.60;;;2.73;;
21507;SDS011;10915;54.352;9.074;2022-07-12T09:58:15;3.50;;;2.97;;
21507;SDS011;10915;54.352;9.074;2022-07-12T10:00:47;3.77;;;3.20;;
21507;SDS011;10915;54.352;9.074;2022-07-12T10:03:15;2.83;;;2.53;;
21507;SDS011;10915;54.352;9.074;2022-07-12T10:05:45;3.10;;;2.60;;
21507;SDS011;10915;54.352;9.074;2022-07-12T10:08:12;1.83;;;1.60;;
21507;SDS011;10915;54.352;9.074;2022-07-12T10:10:38;3.10;;;1.87;;
21507;SDS011;10915;54.352;9.074;2022-07-12T10:13:04;2.77;;;2.00;;
21507;SDS011;10915;54.352;9.074;2022-07-12T10:15:30;2.80;;;2.50;;
21507;SDS011;10915;54.352;9.074;2022-07-12T10:18:00;2.40;;;1.97;;
21507;SDS011;10915;54.352;9.074;2022-07-12T10:20:30;1.60;;;1.50;;
21507;SDS011;10915;54.352;9.074;2022-07-12T10:23:27;1.77;;;1.50;;
21507;SDS011;10915;54.352;9.074;2022-07-12T10:25:51;1.10;;;1.00;;
21507;SDS011;10915;54.352;9.074;2022-07-12T10:28:16;0.70;;;0.70;;
21507;SDS011;10915;54.352;9.074;2022-07-12T10:30:43;0.70;;;0.67;;
21507;SDS011;10915;54.352;9.074;2022-07-12T10:33:16;0.90;;;0.70;;
21507;SDS011;10915;54.352;9.074;2022-07-12T10:35:57;1.40;;;0.87;;
21507;SDS011;10915;54.352;9.074;2022-07-12T10:38:24;0.80;;;0.80;;
21507;SDS011;10915;54.352;9.074;2022-07-12T10:40:50;0.63;;;0.40;;
21507;SDS011;10915;54.352;9.074;2022-07-12T10:43:20;0.87;;;0.50;;
21507;SDS011;10915;54.352;9.074;2022-07-12T10:46:13;0.50;;;0.50;;
21507;SDS011;10915;54.352;9.074;2022-07-12T10:48:40;0.53;;;0.50;;
21507;SDS011;10915;54.352;9.074;2022-07-12T10:51:14;0.40;;;0.40;;
21507;SDS011;10915;54.352;9.074;2022-07-12T10:53:40;0.73;;;0.60;;
21507;SDS011;10915;54.352;9.074;2022-07-12T10:56:08;0.37;;;0.33;;
21507;SDS011;10915;54.352;9.074;2022-07-12T11:01:19;0.40;;;0.40;;
21507;SDS011;10915;54.352;9.074;2022-07-12T11:03:51;1.23;;;0.33;;
21507;SDS011;10915;54.352;9.074;2022-07-12T11:06:19;0.40;;;0.40;;
21507;SDS011;10915;54.352;9.074;2022-07-12T11:08:56;0.80;;;0.70;;
21507;SDS011;10915;54.352;9.074;2022-07-12T11:11:23;0.30;;;0.30;;
21507;SDS011;10915;54.352;9.074;2022-07-12T11:13:52;0.30;;;0.30;;
21507;SDS011;10915;54.352;9.074;2022-07-12T11:16:19;0.23;;;0.23;;
21507;SDS011;10915;54.352;9.074;2022-07-12T11:18:45;1.03;;;0.53;;
21507;SDS011;10915;54.352;9.074;2022-07-12T11:21:12;0.40;;;0.40;;
21507;SDS011;10915;54.352;9.074;2022-07-12T11:23:38;0.87;;;0.20;;
21507;SDS011;10915;54.352;9.074;2022-07-12T11:26:06;0.20;;;0.20;;
21507;SDS011;10915;54.352;9.074;2022-07-12T11:28:33;0.77;;;0.30;;
21507;SDS011;10915;54.352;9.074;2022-07-12T11:31:03;2.30;;;0.40;;
21507;SDS011;10915;54.352;9.074;2022-07-12T11:33:30;0.97;;;0.47;;
21507;SDS011;10915;54.352;9.074;2022-07-12T11:35:58;0.90;;;0.37;;
21507;SDS011;10915;54.352;9.074;2022-07-12T11:38:25;0.33;;;0.20;;
21507;SDS011;10915;54.352;9.074;2022-07-12T11:40:58;0.10;;;0.10;;
21507;SDS011;10915;54.352;9.074;2022-07-12T11:43:25;0.40;;;0.30;;
21507;SDS011;10915;54.352;9.074;2022-07-12T11:45:51;0.43;;;0.30;;
21507;SDS011;10915;54.352;9.074;2022-07-12T11:48:18;1.43;;;0.30;;
21507;SDS011;10915;54.352;9.074;2022-07-12T11:50:45;0.37;;;0.37;;
21507;SDS011;10915;54.352;9.074;2022-07-12T11:55:44;0.50;;;0.40;;
21507;SDS011;10915;54.352;9.074;2022-07-12T11:58:11;0.53;;;0.43;;
21507;SDS011;10915;54.352;9.074;2022-07-12T12:00:38;0.53;;;0.50;;
21507;SDS011;10915;54.352;9.074;2022-07-12T12:03:04;1.00;;;0.50;;
21507;SDS011;10915;54.352;9.074;2022-07-12T12:05:30;0.57;;;0.40;;
21507;SDS011;10915;54.352;9.074;2022-07-12T12:07:55;1.30;;;0.47;;
21507;SDS011;10915;54.352;9.074;2022-07-12T12:10:21;1.20;;;0.60;;
21507;SDS011;10915;54.352;9.074;2022-07-12T12:12:48;0.60;;;0.60;;
21507;SDS011;10915;54.352;9.074;2022-07-12T12:15:17;0.70;;;0.60;;
21507;SDS011;10915;54.352;9.074;2022-07-12T12:17:58;1.00;;;0.90;;
21507;SDS011;10915;54.352;9.074;2022-07-12T12:22:54;2.13;;;0.80;;
21507;SDS011;10915;54.352;9.074;2022-07-12T12:25:21;3.53;;;1.10;;
21507;SDS011;10915;54.352;9.074;2022-07-12T12:27:48;0.73;;;0.70;;
21507;SDS011;10915;54.352;9.074;2022-07-12T12:30:21;1.37;;;0.90;;
21507;SDS011;10915;54.352;9.074;2022-07-12T12:32:49;1.50;;;0.80;;
21507;SDS011;10915;54.352;9.074;2022-07-12T12:35:23;0.93;;;0.80;;
21507;SDS011;10915;54.352;9.074;2022-07-12T12:37:57;1.23;;;0.60;;
21507;SDS011;10915;54.352;9.074;2022-07-12T12:40:49;2.10;;;0.87;;
21507;SDS011;10915;54.352;9.074;2022-07-12T12:43:18;0.83;;;0.73;;
21507;SDS011;10915;54.352;9.074;2022-07-12T12:45:48;1.47;;;0.93;;
21507;SDS011;10915;54.352;9.074;2022-07-12T12:48:22;0.73;;;0.50;;
21507;SDS011;10915;54.352;9.074;2022-07-12T12:50:49;0.50;;;0.50;;
21507;SDS011;10915;54.352;9.074;2022-07-12T12:53:20;1.60;;;0.60;;
21507;SDS011;10915;54.352;9.074;2022-07-12T12:55:51;1.20;;;0.57;;
21507;SDS011;10915;54.352;9.074;2022-07-12T12:58:18;0.70;;;0.70;;
21507;SDS011;10915;54.352;9.074;2022-07-12T13:00:46;0.67;;;0.67;;
21507;SDS011;10915;54.352;9.074;2022-07-12T13:03:14;0.97;;;0.70;;
21507;SDS011;10915;54.352;9.074;2022-07-12T13:05:42;0.97;;;0.93;;
21507;SDS011;10915;54.352;9.074;2022-07-12T13:08:09;2.23;;;1.50;;
21507;SDS011;10915;54.352;9.074;2022-07-12T13:10:36;0.90;;;0.90;;
21507;SDS011;10915;54.352;9.074;2022-07-12T13:13:03;4.33;;;1.37;;
21507;SDS011;10915;54.352;9.074;2022-07-12T13:15:29;2.23;;;1.60;;
21507;SDS011;10915;54.352;9.074;2022-07-12T13:17:56;3.90;;;2.43;;
21507;SDS011;10915;54.352;9.074;2022-07-12T13:20:22;2.80;;;2.13;;
21507;SDS011;10915;54.352;9.074;2022-07-12T13:22:49;4.93;;;3.03;;
21507;SDS011;10915;54.352;9.074;2022-07-12T13:25:15;4.23;;;3.10;;
21507;SDS011;10915;54.352;9.074;2022-07-12T13:27:42;4.87;;;2.57;;
21507;SDS011;10915;54.352;9.074;2022-07-12T13:30:09;5.37;;;3.07;;
21507;SDS011;10915;54.352;9.074;2022-07-12T13:32:36;3.23;;;2.60;;
21507;SDS011;10915;54.352;9.074;2022-07-12T13:35:04;2.30;;;2.10;;
21507;SDS011;10915;54.352;9.074;2022-07-12T13:37:31;2.80;;;1.60;;
21507;SDS011;10915;54.352;9.074;2022-07-12T13:39:58;3.10;;;2.33;;
21507;SDS011;10915;54.352;9.074;2022-07-12T13:42:36;2.23;;;2.00;;
21507;SDS011;10915;54.352;9.074;2022-07-12T13:45:06;2.37;;;2.17;;
21507;SDS011;10915;54.352;9.074;2022-07-12T13:47:34;2.40;;;1.80;;
21507;SDS011;10915;54.352;9.074;2022-07-12T13:50:00;1.80;;;1.40;;
21507;SDS011;10915;54.352;9.074;2022-07-12T13:52:27;1.90;;;1.40;;
21507;SDS011;10915;54.352;9.074;2022-07-12T13:54:52;2.23;;;1.43;;
21507;SDS011;10915;54.352;9.074;2022-07-12T13:57:18;2.07;;;1.77;;
21507;SDS011;10915;54.352;9.074;2022-07-12T13:59:44;1.97;;;1.77;;
21507;SDS011;10915;54.352;9.074;2022-07-12T14:02:10;3.20;;;2.37;;
21507;SDS011;10915;54.352;9.074;2022-07-12T14:04:35;3.43;;;2.10;;
21507;SDS011;10915;54.352;9.074;2022-07-12T14:07:01;3.70;;;1.50;;
21507;SDS011;10915;54.352;9.074;2022-07-12T14:09:27;2.37;;;2.13;;
21507;SDS011;10915;54.352;9.074;2022-07-12T14:11:53;2.73;;;1.57;;
21507;SDS011;10915;54.352;9.074;2022-07-12T14:14:19;2.13;;;1.50;;
21507;SDS011;10915;54.352;9.074;2022-07-12T14:17:03;2.33;;;1.27;;
21507;SDS011;10915;54.352;9.074;2022-07-12T14:19:28;1.53;;;1.40;;
21507;SDS011;10915;54.352;9.074;2022-07-12T14:21:54;3.00;;;2.00;;
21507;SDS011;10915;54.352;9.074;2022-07-12T14:24:20;4.90;;;2.47;;
21507;SDS011;10915;54.352;9.074;2022-07-12T14:26:46;2.20;;;1.53;;
21507;SDS011;10915;54.352;9.074;2022-07-12T14:29:11;2.57;;;2.03;;
21507;SDS011;10915;54.352;9.074;2022-07-12T14:31:37;3.80;;;2.30;;
21507;SDS011;10915;54.352;9.074;2022-07-12T14:34:03;2.27;;;2.07;;
21507;SDS011;10915;54.352;9.074;2022-07-12T14:36:28;3.47;;;2.80;;
21507;SDS011;10915;54.352;9.074;2022-07-12T14:38:54;3.37;;;2.17;;
21507;SDS011;10915;54.352;9.074;2022-07-12T14:41:19;2.93;;;2.20;;
21507;SDS011;10915;54.352;9.074;2022-07-12T14:43:45;3.90;;;2.60;;
21507;SDS011;10915;54.352;9.074;2022-07-12T14:46:12;3.73;;;2.57;;
21507;SDS011;10915;54.352;9.074;2022-07-12T14:48:38;3.60;;;2.90;;
21507;SDS011;10915;54.352;9.074;2022-07-12T14:51:04;2.50;;;2.10;;
21507;SDS011;10915;54.352;9.074;2022-07-12T14:53:30;7.13;;;3.27;;
21507;SDS011;10915;54.352;9.074;2022-07-12T14:55:55;3.97;;;2.70;;
21507;SDS011;10915;54.352;9.074;2022-07-12T14:58:21;4.27;;;3.07;;
21507;SDS011;10915;54.352;9.074;2022-07-12T15:00:47;5.00;;;3.40;;
21507;SDS011;10915;54.352;9.074;2022-07-12T15:03:13;3.63;;;2.97;;